Tug Brendan J Bouchard — WCZ5207 — position and weather

sailwx.info

Track history (hours):
 
Tides and Currents Weather Stations Pressure Air Temp Water Temp Dewpoint Dewpoint Depression Visibility Wind Speed Wind Dir Waves Ship Positions

Tug Brendan J Bouchard

Owner: TUG BRENDAN J BOUCHARD CORP, MELVILLE, NY. More information available from US FCC via Universal Licensing System and Coast Guard Vessel Documentation Center.

Last reported at 2017-Oct-17 22:40 UTC. Time now 2017-Oct-20 11:05 UTC.
Position N 27°03' W 079°59'.

Length 163 m; draft 5.8 m.

Type: Tug. MMSI: 338631000.

Date/timePositionNaut miles runAvg speedWind from/ knotsBaromVisibWave heightAir tempDewpointWater temp
2017-Oct-17 22:40N 27°03' W 079°59'1 8.7
2017-Oct-17 22:30N 27°02' W 079°59'5 9.1
2017-Oct-17 22:00N 26°57' W 079°58'5 9.7
2017-Oct-17 21:30N 26°52' W 079°58'5 9.9
2017-Oct-17 21:00N 26°47' W 079°57'29 9.8
2017-Oct-17 18:05N 26°19' W 079°59'1 9.5
2017-Oct-17 18:01N 26°18' W 079°59'5 9.4
2017-Oct-17 17:30N 26°13' W 079°59'510.3
2017-Oct-17 17:00N 26°08' W 079°59'510.0
2017-Oct-17 16:30N 26°03' W 079°60'5 9.6
2017-Oct-17 16:00N 25°58' W 080°01'510.2
2017-Oct-17 15:30N 25°53' W 080°01'510.7
2017-Oct-17 15:00N 25°48' W 080°01'612.4
2017-Oct-17 14:30N 25°42' W 080°01'612.8
2017-Oct-17 14:00N 25°35' W 080°01'712.8
2017-Oct-17 13:29N 25°29' W 080°01'612.8
2017-Oct-17 13:00N 25°22' W 080°02'  
2017-Oct-14 09:17N 29°57' W 090°09'310.1
2017-Oct-14 08:59N 29°55' W 090°12'9 8.0
2017-Oct-14 07:54N 29°56' W 090°22'  
Track history (hours):
 
Tides and Currents Weather Stations Pressure Air Temp Water Temp Dewpoint Dewpoint Depression Visibility Wind Speed Wind Dir Waves Ship Positions

Tug Brendan J Bouchard

Owner: TUG BRENDAN J BOUCHARD CORP, MELVILLE, NY. More information available from US FCC via Universal Licensing System and Coast Guard Vessel Documentation Center.

Last reported at 2017-Oct-17 22:40 UTC. Time now 2017-Oct-20 11:05 UTC.
Position N 27°03' W 079°59'.

Length 163 m; draft 5.8 m.

Type: Tug. MMSI: 338631000.

Date/timePositionNaut miles runAvg speedWind from/ knotsBaromVisibWave heightAir tempDewpointWater temp
2017-Oct-17 22:40N 27°03' W 079°59'1 8.7
2017-Oct-17 22:30N 27°02' W 079°59'5 9.1
2017-Oct-17 22:00N 26°57' W 079°58'5 9.7
2017-Oct-17 21:30N 26°52' W 079°58'5 9.9
2017-Oct-17 21:00N 26°47' W 079°57'29 9.8
2017-Oct-17 18:05N 26°19' W 079°59'1 9.5
2017-Oct-17 18:01N 26°18' W 079°59'5 9.4
2017-Oct-17 17:30N 26°13' W 079°59'510.3
2017-Oct-17 17:00N 26°08' W 079°59'510.0
2017-Oct-17 16:30N 26°03' W 079°60'5 9.6
2017-Oct-17 16:00N 25°58' W 080°01'510.2
2017-Oct-17 15:30N 25°53' W 080°01'510.7
2017-Oct-17 15:00N 25°48' W 080°01'612.4
2017-Oct-17 14:30N 25°42' W 080°01'612.8
2017-Oct-17 14:00N 25°35' W 080°01'712.8
2017-Oct-17 13:29N 25°29' W 080°01'612.8
2017-Oct-17 13:00N 25°22' W 080°02'  
2017-Oct-14 09:17N 29°57' W 090°09'310.1
2017-Oct-14 08:59N 29°55' W 090°12'9 8.0
2017-Oct-14 07:54N 29°56' W 090°22'  

Dump ship's entire track history